sensor_id;sensor_type;location;lat;lon;timestamp;P1;durP1;ratioP1;P2;durP2;ratioP2
23539;SDS011;11947;50.810;4.394;2023-02-13T00:00:11;144.30;;;51.47;;
23539;SDS011;11947;50.810;4.394;2023-02-13T00:02:39;141.52;;;52.97;;
23539;SDS011;11947;50.810;4.394;2023-02-13T00:05:05;150.63;;;53.97;;
23539;SDS011;11947;50.810;4.394;2023-02-13T00:07:31;145.10;;;54.40;;
23539;SDS011;11947;50.810;4.394;2023-02-13T00:09:57;155.95;;;53.05;;
23539;SDS011;11947;50.810;4.394;2023-02-13T00:12:23;143.43;;;50.25;;
23539;SDS011;11947;50.810;4.394;2023-02-13T00:14:51;145.75;;;51.53;;
23539;SDS011;11947;50.810;4.394;2023-02-13T00:17:17;149.75;;;53.33;;
23539;SDS011;11947;50.810;4.394;2023-02-13T00:19:43;152.80;;;52.05;;
23539;SDS011;11947;50.810;4.394;2023-02-13T00:22:09;147.20;;;52.53;;
23539;SDS011;11947;50.810;4.394;2023-02-13T00:24:35;152.68;;;52.92;;
23539;SDS011;11947;50.810;4.394;2023-02-13T00:27:00;146.88;;;52.05;;
23539;SDS011;11947;50.810;4.394;2023-02-13T00:29:26;145.52;;;51.88;;
23539;SDS011;11947;50.810;4.394;2023-02-13T00:31:51;150.23;;;52.67;;
23539;SDS011;11947;50.810;4.394;2023-02-13T00:34:17;142.98;;;52.53;;
23539;SDS011;11947;50.810;4.394;2023-02-13T00:36:42;152.95;;;52.80;;
23539;SDS011;11947;50.810;4.394;2023-02-13T00:39:09;152.00;;;52.85;;
23539;SDS011;11947;50.810;4.394;2023-02-13T00:41:36;143.77;;;52.75;;
23539;SDS011;11947;50.810;4.394;2023-02-13T00:44:02;149.38;;;52.10;;
23539;SDS011;11947;50.810;4.394;2023-02-13T00:46:28;150.25;;;52.05;;
23539;SDS011;11947;50.810;4.394;2023-02-13T00:48:56;152.73;;;52.13;;
23539;SDS011;11947;50.810;4.394;2023-02-13T00:51:22;143.27;;;52.55;;
23539;SDS011;11947;50.810;4.394;2023-02-13T00:53:47;148.43;;;51.03;;
23539;SDS011;11947;50.810;4.394;2023-02-13T00:56:15;141.73;;;49.85;;
23539;SDS011;11947;50.810;4.394;2023-02-13T00:58:40;156.40;;;52.03;;
23539;SDS011;11947;50.810;4.394;2023-02-13T01:01:06;148.63;;;51.53;;
23539;SDS011;11947;50.810;4.394;2023-02-13T01:03:32;146.90;;;51.13;;
23539;SDS011;11947;50.810;4.394;2023-02-13T01:05:57;154.20;;;51.13;;
23539;SDS011;11947;50.810;4.394;2023-02-13T01:08:23;150.05;;;49.83;;
23539;SDS011;11947;50.810;4.394;2023-02-13T01:10:49;150.50;;;49.60;;
23539;SDS011;11947;50.810;4.394;2023-02-13T01:13:15;149.80;;;49.83;;
23539;SDS011;11947;50.810;4.394;2023-02-13T01:15:44;152.18;;;51.75;;
23539;SDS011;11947;50.810;4.394;2023-02-13T01:18:12;142.20;;;50.95;;
23539;SDS011;11947;50.810;4.394;2023-02-13T01:20:39;156.32;;;50.67;;
23539;SDS011;11947;50.810;4.394;2023-02-13T01:23:05;150.20;;;50.88;;
23539;SDS011;11947;50.810;4.394;2023-02-13T01:25:31;152.85;;;50.78;;
23539;SDS011;11947;50.810;4.394;2023-02-13T01:27:57;149.70;;;50.05;;
23539;SDS011;11947;50.810;4.394;2023-02-13T01:30:23;143.68;;;50.03;;
23539;SDS011;11947;50.810;4.394;2023-02-13T01:32:48;145.30;;;49.10;;
23539;SDS011;11947;50.810;4.394;2023-02-13T01:35:14;142.18;;;48.55;;
23539;SDS011;11947;50.810;4.394;2023-02-13T01:37:40;144.80;;;49.13;;
23539;SDS011;11947;50.810;4.394;2023-02-13T01:40:07;152.65;;;48.03;;
23539;SDS011;11947;50.810;4.394;2023-02-13T01:42:35;151.00;;;49.10;;
23539;SDS011;11947;50.810;4.394;2023-02-13T01:45:03;154.32;;;49.60;;
23539;SDS011;11947;50.810;4.394;2023-02-13T01:50:05;144.63;;;47.92;;
23539;SDS011;11947;50.810;4.394;2023-02-13T01:52:34;155.45;;;49.30;;
23539;SDS011;11947;50.810;4.394;2023-02-13T01:55:02;149.90;;;49.75;;
23539;SDS011;11947;50.810;4.394;2023-02-13T01:57:29;154.32;;;48.38;;
23539;SDS011;11947;50.810;4.394;2023-02-13T02:00:02;162.25;;;48.85;;
23539;SDS011;11947;50.810;4.394;2023-02-13T02:02:33;158.80;;;49.90;;
23539;SDS011;11947;50.810;4.394;2023-02-13T02:05:06;146.82;;;47.92;;
23539;SDS011;11947;50.810;4.394;2023-02-13T02:07:33;155.65;;;48.45;;
23539;SDS011;11947;50.810;4.394;2023-02-13T02:10:02;163.82;;;48.63;;
23539;SDS011;11947;50.810;4.394;2023-02-13T02:15:19;146.60;;;47.83;;
23539;SDS011;11947;50.810;4.394;2023-02-13T02:17:45;137.85;;;47.42;;
23539;SDS011;11947;50.810;4.394;2023-02-13T02:28:22;145.68;;;47.78;;
23539;SDS011;11947;50.810;4.394;2023-02-13T02:42:29;142.55;;;46.38;;
23539;SDS011;11947;50.810;4.394;2023-02-13T02:47:57;134.80;;;44.35;;
23539;SDS011;11947;50.810;4.394;2023-02-13T02:53:30;147.75;;;45.35;;
23539;SDS011;11947;50.810;4.394;2023-02-13T03:01:46;139.90;;;45.53;;
23539;SDS011;11947;50.810;4.394;2023-02-13T03:04:33;135.10;;;44.70;;
23539;SDS011;11947;50.810;4.394;2023-02-13T03:07:22;136.27;;;44.28;;
23539;SDS011;11947;50.810;4.394;2023-02-13T03:09:51;141.10;;;45.22;;
23539;SDS011;11947;50.810;4.394;2023-02-13T03:12:43;143.07;;;44.55;;
23539;SDS011;11947;50.810;4.394;2023-02-13T03:15:34;148.27;;;46.28;;
23539;SDS011;11947;50.810;4.394;2023-02-13T03:18:22;139.02;;;43.92;;
23539;SDS011;11947;50.810;4.394;2023-02-13T03:21:10;127.43;;;43.28;;
23539;SDS011;11947;50.810;4.394;2023-02-13T03:24:01;134.73;;;44.40;;
23539;SDS011;11947;50.810;4.394;2023-02-13T03:29:27;143.82;;;45.13;;
23539;SDS011;11947;50.810;4.394;2023-02-13T03:32:22;135.82;;;43.25;;
23539;SDS011;11947;50.810;4.394;2023-02-13T03:35:18;143.10;;;45.58;;
23539;SDS011;11947;50.810;4.394;2023-02-13T03:38:29;140.45;;;44.00;;
23539;SDS011;11947;50.810;4.394;2023-02-13T03:41:15;134.00;;;43.35;;
23539;SDS011;11947;50.810;4.394;2023-02-13T03:43:58;140.57;;;43.35;;
23539;SDS011;11947;50.810;4.394;2023-02-13T03:46:34;134.32;;;42.72;;
23539;SDS011;11947;50.810;4.394;2023-02-13T03:49:04;132.63;;;42.38;;
23539;SDS011;11947;50.810;4.394;2023-02-13T03:54:26;139.38;;;43.53;;
23539;SDS011;11947;50.810;4.394;2023-02-13T03:57:17;134.98;;;43.30;;
23539;SDS011;11947;50.810;4.394;2023-02-13T04:00:04;146.27;;;43.95;;
23539;SDS011;11947;50.810;4.394;2023-02-13T04:02:36;140.07;;;43.97;;
23539;SDS011;11947;50.810;4.394;2023-02-13T04:07:35;143.35;;;41.78;;
23539;SDS011;11947;50.810;4.394;2023-02-13T04:10:02;137.98;;;43.90;;
23539;SDS011;11947;50.810;4.394;2023-02-13T04:12:38;136.55;;;42.45;;
23539;SDS011;11947;50.810;4.394;2023-02-13T04:15:26;139.52;;;43.22;;
23539;SDS011;11947;50.810;4.394;2023-02-13T04:18:07;133.40;;;42.50;;
23539;SDS011;11947;50.810;4.394;2023-02-13T04:20:34;142.90;;;43.65;;
23539;SDS011;11947;50.810;4.394;2023-02-13T04:23:06;137.90;;;42.65;;
23539;SDS011;11947;50.810;4.394;2023-02-13T04:25:34;128.52;;;42.30;;
23539;SDS011;11947;50.810;4.394;2023-02-13T04:28:02;133.13;;;42.80;;
23539;SDS011;11947;50.810;4.394;2023-02-13T04:30:28;133.52;;;42.92;;
23539;SDS011;11947;50.810;4.394;2023-02-13T04:32:53;128.15;;;41.42;;
23539;SDS011;11947;50.810;4.394;2023-02-13T04:35:19;135.27;;;40.88;;
23539;SDS011;11947;50.810;4.394;2023-02-13T04:37:45;130.18;;;42.83;;
23539;SDS011;11947;50.810;4.394;2023-02-13T04:40:10;131.25;;;42.42;;
23539;SDS011;11947;50.810;4.394;2023-02-13T04:42:36;127.68;;;41.45;;
23539;SDS011;11947;50.810;4.394;2023-02-13T04:45:02;130.02;;;41.88;;
23539;SDS011;11947;50.810;4.394;2023-02-13T04:47:28;131.30;;;41.65;;
23539;SDS011;11947;50.810;4.394;2023-02-13T04:49:53;141.32;;;42.50;;
23539;SDS011;11947;50.810;4.394;2023-02-13T04:52:19;137.70;;;43.28;;
23539;SDS011;11947;50.810;4.394;2023-02-13T04:54:44;134.98;;;41.85;;
23539;SDS011;11947;50.810;4.394;2023-02-13T04:57:10;133.38;;;42.47;;
23539;SDS011;11947;50.810;4.394;2023-02-13T04:59:35;130.35;;;42.92;;
23539;SDS011;11947;50.810;4.394;2023-02-13T05:02:01;132.70;;;41.80;;
23539;SDS011;11947;50.810;4.394;2023-02-13T05:04:27;127.78;;;41.17;;
23539;SDS011;11947;50.810;4.394;2023-02-13T05:06:53;120.60;;;40.08;;
23539;SDS011;11947;50.810;4.394;2023-02-13T05:09:18;131.70;;;41.92;;
23539;SDS011;11947;50.810;4.394;2023-02-13T05:11:44;129.70;;;43.40;;
23539;SDS011;11947;50.810;4.394;2023-02-13T05:14:10;121.82;;;40.78;;
23539;SDS011;11947;50.810;4.394;2023-02-13T05:16:35;132.32;;;42.13;;
23539;SDS011;11947;50.810;4.394;2023-02-13T05:19:01;127.80;;;41.15;;
23539;SDS011;11947;50.810;4.394;2023-02-13T05:21:27;126.28;;;40.58;;
23539;SDS011;11947;50.810;4.394;2023-02-13T05:24:11;121.53;;;40.20;;
23539;SDS011;11947;50.810;4.394;2023-02-13T05:26:37;116.43;;;39.10;;
23539;SDS011;11947;50.810;4.394;2023-02-13T05:29:02;128.30;;;40.53;;
23539;SDS011;11947;50.810;4.394;2023-02-13T05:31:43;114.97;;;38.92;;
23539;SDS011;11947;50.810;4.394;2023-02-13T05:34:10;118.60;;;38.53;;
23539;SDS011;11947;50.810;4.394;2023-02-13T05:36:35;119.45;;;39.92;;
23539;SDS011;11947;50.810;4.394;2023-02-13T05:39:01;119.47;;;39.15;;
23539;SDS011;11947;50.810;4.394;2023-02-13T05:41:26;119.95;;;39.90;;
23539;SDS011;11947;50.810;4.394;2023-02-13T05:43:52;117.85;;;38.35;;
23539;SDS011;11947;50.810;4.394;2023-02-13T05:46:17;117.85;;;39.17;;
23539;SDS011;11947;50.810;4.394;2023-02-13T05:48:43;117.57;;;38.83;;
23539;SDS011;11947;50.810;4.394;2023-02-13T05:51:08;120.43;;;38.60;;
23539;SDS011;11947;50.810;4.394;2023-02-13T05:53:34;110.97;;;37.75;;
23539;SDS011;11947;50.810;4.394;2023-02-13T05:56:00;119.70;;;39.67;;
23539;SDS011;11947;50.810;4.394;2023-02-13T05:58:27;107.38;;;37.25;;
23539;SDS011;11947;50.810;4.394;2023-02-13T06:00:56;105.22;;;36.88;;
23539;SDS011;11947;50.810;4.394;2023-02-13T06:03:23;122.38;;;40.17;;
23539;SDS011;11947;50.810;4.394;2023-02-13T06:05:50;110.78;;;37.92;;
23539;SDS011;11947;50.810;4.394;2023-02-13T06:08:15;125.18;;;38.22;;
23539;SDS011;11947;50.810;4.394;2023-02-13T06:10:41;108.60;;;37.85;;
23539;SDS011;11947;50.810;4.394;2023-02-13T06:13:07;108.63;;;37.22;;
23539;SDS011;11947;50.810;4.394;2023-02-13T06:15:32;112.88;;;37.05;;
23539;SDS011;11947;50.810;4.394;2023-02-13T06:17:58;113.07;;;37.92;;
23539;SDS011;11947;50.810;4.394;2023-02-13T06:20:26;107.82;;;36.83;;
23539;SDS011;11947;50.810;4.394;2023-02-13T06:22:52;103.90;;;36.92;;
23539;SDS011;11947;50.810;4.394;2023-02-13T06:25:18;99.95;;;36.00;;
23539;SDS011;11947;50.810;4.394;2023-02-13T06:27:44;105.80;;;34.40;;
23539;SDS011;11947;50.810;4.394;2023-02-13T06:30:10;97.97;;;35.38;;
23539;SDS011;11947;50.810;4.394;2023-02-13T06:32:36;100.38;;;35.25;;
23539;SDS011;11947;50.810;4.394;2023-02-13T06:35:02;106.85;;;35.03;;
23539;SDS011;11947;50.810;4.394;2023-02-13T06:37:28;94.68;;;35.22;;
23539;SDS011;11947;50.810;4.394;2023-02-13T06:39:53;97.63;;;36.00;;
23539;SDS011;11947;50.810;4.394;2023-02-13T06:42:19;90.88;;;32.95;;
23539;SDS011;11947;50.810;4.394;2023-02-13T06:44:44;90.72;;;35.45;;
23539;SDS011;11947;50.810;4.394;2023-02-13T06:47:10;88.47;;;35.15;;
23539;SDS011;11947;50.810;4.394;2023-02-13T06:49:35;92.10;;;35.70;;
23539;SDS011;11947;50.810;4.394;2023-02-13T06:52:01;92.03;;;36.28;;
23539;SDS011;11947;50.810;4.394;2023-02-13T06:54:27;86.30;;;33.83;;
23539;SDS011;11947;50.810;4.394;2023-02-13T06:56:52;95.93;;;35.80;;
23539;SDS011;11947;50.810;4.394;2023-02-13T06:59:18;92.97;;;34.55;;
23539;SDS011;11947;50.810;4.394;2023-02-13T07:01:43;85.97;;;32.50;;
23539;SDS011;11947;50.810;4.394;2023-02-13T07:04:09;88.03;;;32.95;;
23539;SDS011;11947;50.810;4.394;2023-02-13T07:06:34;90.38;;;35.05;;
23539;SDS011;11947;50.810;4.394;2023-02-13T07:09:00;83.95;;;33.40;;
23539;SDS011;11947;50.810;4.394;2023-02-13T07:11:27;83.47;;;33.05;;
23539;SDS011;11947;50.810;4.394;2023-02-13T07:13:52;88.18;;;33.05;;
23539;SDS011;11947;50.810;4.394;2023-02-13T07:16:18;87.88;;;31.73;;
23539;SDS011;11947;50.810;4.394;2023-02-13T07:18:46;82.05;;;33.50;;
23539;SDS011;11947;50.810;4.394;2023-02-13T07:21:11;87.25;;;32.03;;
23539;SDS011;11947;50.810;4.394;2023-02-13T07:23:37;80.78;;;32.53;;
23539;SDS011;11947;50.810;4.394;2023-02-13T07:26:03;82.97;;;33.10;;
23539;SDS011;11947;50.810;4.394;2023-02-13T07:28:29;88.47;;;33.25;;
23539;SDS011;11947;50.810;4.394;2023-02-13T07:30:55;79.93;;;31.70;;
23539;SDS011;11947;50.810;4.394;2023-02-13T07:33:21;82.95;;;32.75;;
23539;SDS011;11947;50.810;4.394;2023-02-13T07:35:50;85.90;;;32.40;;
23539;SDS011;11947;50.810;4.394;2023-02-13T07:38:17;85.82;;;33.78;;
23539;SDS011;11947;50.810;4.394;2023-02-13T07:40:43;82.35;;;32.22;;
23539;SDS011;11947;50.810;4.394;2023-02-13T07:43:08;88.72;;;34.20;;
23539;SDS011;11947;50.810;4.394;2023-02-13T07:45:34;86.70;;;33.78;;
23539;SDS011;11947;50.810;4.394;2023-02-13T07:48:00;85.63;;;34.38;;
23539;SDS011;11947;50.810;4.394;2023-02-13T07:50:25;95.22;;;34.92;;
23539;SDS011;11947;50.810;4.394;2023-02-13T07:52:52;92.40;;;34.75;;
23539;SDS011;11947;50.810;4.394;2023-02-13T07:55:19;85.53;;;34.22;;
23539;SDS011;11947;50.810;4.394;2023-02-13T07:57:45;90.65;;;37.13;;
23539;SDS011;11947;50.810;4.394;2023-02-13T08:00:10;90.32;;;34.83;;
23539;SDS011;11947;50.810;4.394;2023-02-13T08:02:37;89.22;;;35.03;;
23539;SDS011;11947;50.810;4.394;2023-02-13T08:05:03;84.03;;;34.15;;
23539;SDS011;11947;50.810;4.394;2023-02-13T08:07:29;93.05;;;33.33;;
23539;SDS011;11947;50.810;4.394;2023-02-13T08:09:55;81.38;;;34.08;;
23539;SDS011;11947;50.810;4.394;2023-02-13T08:12:39;91.35;;;34.55;;
23539;SDS011;11947;50.810;4.394;2023-02-13T08:15:05;91.38;;;34.03;;
23539;SDS011;11947;50.810;4.394;2023-02-13T08:17:31;88.95;;;33.08;;
23539;SDS011;11947;50.810;4.394;2023-02-13T08:19:57;86.18;;;33.40;;
23539;SDS011;11947;50.810;4.394;2023-02-13T08:22:22;91.18;;;33.88;;
23539;SDS011;11947;50.810;4.394;2023-02-13T08:24:48;84.35;;;33.25;;
23539;SDS011;11947;50.810;4.394;2023-02-13T08:27:14;86.85;;;32.53;;
23539;SDS011;11947;50.810;4.394;2023-02-13T08:29:39;85.53;;;31.90;;
23539;SDS011;11947;50.810;4.394;2023-02-13T08:32:05;85.68;;;33.92;;
23539;SDS011;11947;50.810;4.394;2023-02-13T08:34:31;84.97;;;32.05;;
23539;SDS011;11947;50.810;4.394;2023-02-13T08:36:57;84.20;;;31.80;;
23539;SDS011;11947;50.810;4.394;2023-02-13T08:39:22;94.40;;;31.55;;
23539;SDS011;11947;50.810;4.394;2023-02-13T08:41:48;90.07;;;33.25;;
23539;SDS011;11947;50.810;4.394;2023-02-13T08:44:13;82.60;;;32.17;;
23539;SDS011;11947;50.810;4.394;2023-02-13T08:46:39;92.68;;;30.30;;
23539;SDS011;11947;50.810;4.394;2023-02-13T08:49:05;88.40;;;30.83;;
23539;SDS011;11947;50.810;4.394;2023-02-13T08:51:30;89.45;;;31.25;;
23539;SDS011;11947;50.810;4.394;2023-02-13T08:53:56;86.35;;;30.65;;
23539;SDS011;11947;50.810;4.394;2023-02-13T08:56:22;83.95;;;31.50;;
23539;SDS011;11947;50.810;4.394;2023-02-13T08:58:48;79.18;;;30.13;;
23539;SDS011;11947;50.810;4.394;2023-02-13T09:01:14;82.30;;;31.60;;
23539;SDS011;11947;50.810;4.394;2023-02-13T09:03:40;89.57;;;31.65;;
23539;SDS011;11947;50.810;4.394;2023-02-13T09:06:05;86.32;;;33.35;;
23539;SDS011;11947;50.810;4.394;2023-02-13T09:08:33;82.35;;;31.35;;
23539;SDS011;11947;50.810;4.394;2023-02-13T09:10:59;81.03;;;31.30;;
23539;SDS011;11947;50.810;4.394;2023-02-13T09:13:30;76.82;;;30.67;;
23539;SDS011;11947;50.810;4.394;2023-02-13T09:15:59;83.85;;;30.63;;
23539;SDS011;11947;50.810;4.394;2023-02-13T09:18:26;74.40;;;30.73;;
23539;SDS011;11947;50.810;4.394;2023-02-13T09:20:56;63.90;;;27.77;;
23539;SDS011;11947;50.810;4.394;2023-02-13T09:23:22;68.47;;;28.50;;
23539;SDS011;11947;50.810;4.394;2023-02-13T09:25:48;63.03;;;27.98;;
23539;SDS011;11947;50.810;4.394;2023-02-13T09:28:13;57.25;;;26.90;;
23539;SDS011;11947;50.810;4.394;2023-02-13T09:30:39;55.83;;;25.55;;
23539;SDS011;11947;50.810;4.394;2023-02-13T09:33:08;55.60;;;25.08;;
23539;SDS011;11947;50.810;4.394;2023-02-13T09:35:36;53.20;;;24.25;;
23539;SDS011;11947;50.810;4.394;2023-02-13T09:38:01;47.20;;;22.88;;
23539;SDS011;11947;50.810;4.394;2023-02-13T09:40:28;47.70;;;22.67;;
23539;SDS011;11947;50.810;4.394;2023-02-13T09:46:07;43.88;;;21.65;;
23539;SDS011;11947;50.810;4.394;2023-02-13T09:48:38;41.15;;;20.20;;
23539;SDS011;11947;50.810;4.394;2023-02-13T09:51:05;49.90;;;19.73;;
23539;SDS011;11947;50.810;4.394;2023-02-13T09:53:31;41.70;;;19.30;;
23539;SDS011;11947;50.810;4.394;2023-02-13T09:56:15;45.67;;;20.08;;
23539;SDS011;11947;50.810;4.394;2023-02-13T10:01:17;39.67;;;19.95;;
23539;SDS011;11947;50.810;4.394;2023-02-13T10:03:58;41.53;;;20.23;;
23539;SDS011;11947;50.810;4.394;2023-02-13T10:06:46;37.72;;;19.92;;
23539;SDS011;11947;50.810;4.394;2023-02-13T10:09:32;40.03;;;19.45;;
23539;SDS011;11947;50.810;4.394;2023-02-13T10:17:28;36.10;;;17.73;;
23539;SDS011;11947;50.810;4.394;2023-02-13T10:20:00;34.25;;;18.15;;
23539;SDS011;11947;50.810;4.394;2023-02-13T10:27:59;33.13;;;17.43;;
23539;SDS011;11947;50.810;4.394;2023-02-13T10:30:32;32.10;;;16.98;;
23539;SDS011;11947;50.810;4.394;2023-02-13T10:33:23;31.23;;;15.93;;
23539;SDS011;11947;50.810;4.394;2023-02-13T10:38:32;31.15;;;16.20;;
23539;SDS011;11947;50.810;4.394;2023-02-13T10:41:14;32.53;;;16.48;;
23539;SDS011;11947;50.810;4.394;2023-02-13T10:55:21;27.08;;;13.00;;
23539;SDS011;11947;50.810;4.394;2023-02-13T10:58:11;25.75;;;13.32;;
23539;SDS011;11947;50.810;4.394;2023-02-13T11:00:48;27.73;;;13.57;;
23539;SDS011;11947;50.810;4.394;2023-02-13T11:03:24;23.45;;;13.05;;
23539;SDS011;11947;50.810;4.394;2023-02-13T11:05:52;29.83;;;14.63;;
23539;SDS011;11947;50.810;4.394;2023-02-13T11:08:26;27.42;;;14.20;;
23539;SDS011;11947;50.810;4.394;2023-02-13T11:10:57;24.95;;;13.60;;
23539;SDS011;11947;50.810;4.394;2023-02-13T11:13:23;27.63;;;14.98;;
23539;SDS011;11947;50.810;4.394;2023-02-13T11:16:04;24.98;;;13.60;;
23539;SDS011;11947;50.810;4.394;2023-02-13T11:18:38;24.52;;;13.63;;
23539;SDS011;11947;50.810;4.394;2023-02-13T11:21:09;23.45;;;13.70;;
23539;SDS011;11947;50.810;4.394;2023-02-13T11:23:50;25.15;;;13.40;;
23539;SDS011;11947;50.810;4.394;2023-02-13T11:26:34;24.65;;;14.15;;
23539;SDS011;11947;50.810;4.394;2023-02-13T11:29:15;24.48;;;13.50;;
23539;SDS011;11947;50.810;4.394;2023-02-13T11:34:39;26.92;;;14.60;;
23539;SDS011;11947;50.810;4.394;2023-02-13T11:39:36;27.20;;;15.43;;
23539;SDS011;11947;50.810;4.394;2023-02-13T11:42:03;28.30;;;14.57;;
23539;SDS011;11947;50.810;4.394;2023-02-13T11:44:54;23.85;;;13.63;;
23539;SDS011;11947;50.810;4.394;2023-02-13T11:47:36;31.70;;;16.60;;
23539;SDS011;11947;50.810;4.394;2023-02-13T11:50:28;27.40;;;14.35;;
23539;SDS011;11947;50.810;4.394;2023-02-13T11:52:55;29.30;;;15.57;;
23539;SDS011;11947;50.810;4.394;2023-02-13T11:55:36;29.15;;;14.88;;
23539;SDS011;11947;50.810;4.394;2023-02-13T11:58:20;29.65;;;15.88;;
23539;SDS011;11947;50.810;4.394;2023-02-13T12:00:48;28.27;;;16.30;;
23539;SDS011;11947;50.810;4.394;2023-02-13T12:08:36;30.15;;;15.57;;
23539;SDS011;11947;50.810;4.394;2023-02-13T12:11:08;27.52;;;14.95;;
23539;SDS011;11947;50.810;4.394;2023-02-13T12:13:48;26.98;;;15.38;;
23539;SDS011;11947;50.810;4.394;2023-02-13T12:18:59;27.95;;;15.10;;
23539;SDS011;11947;50.810;4.394;2023-02-13T12:26:39;29.50;;;15.50;;
23539;SDS011;11947;50.810;4.394;2023-02-13T12:29:31;20.80;;;13.60;;
23539;SDS011;11947;50.810;4.394;2023-02-13T12:32:17;20.98;;;13.45;;
23539;SDS011;11947;50.810;4.394;2023-02-13T12:34:49;21.60;;;14.30;;
23539;SDS011;11947;50.810;4.394;2023-02-13T12:43:21;17.80;;;14.70;;
23539;SDS011;11947;50.810;4.394;2023-02-13T12:57:16;19.40;;;14.43;;
23539;SDS011;11947;50.810;4.394;2023-02-13T13:05:13;17.92;;;13.75;;
23539;SDS011;11947;50.810;4.394;2023-02-13T13:19:28;15.15;;;13.25;;
23539;SDS011;11947;50.810;4.394;2023-02-13T13:22:25;16.15;;;13.57;;
23539;SDS011;11947;50.810;4.394;2023-02-13T13:27:33;19.00;;;13.70;;
23539;SDS011;11947;50.810;4.394;2023-02-13T13:30:05;19.13;;;14.70;;
23539;SDS011;11947;50.810;4.394;2023-02-13T13:32:40;18.02;;;13.43;;
23539;SDS011;11947;50.810;4.394;2023-02-13T13:35:13;16.70;;;14.57;;
23539;SDS011;11947;50.810;4.394;2023-02-13T13:37:45;14.77;;;13.27;;
23539;SDS011;11947;50.810;4.394;2023-02-13T13:46:01;16.20;;;13.98;;
23539;SDS011;11947;50.810;4.394;2023-02-13T13:51:00;17.25;;;14.80;;
23539;SDS011;11947;50.810;4.394;2023-02-13T13:53:26;17.67;;;14.05;;
23539;SDS011;11947;50.810;4.394;2023-02-13T14:03:59;19.60;;;13.57;;
23539;SDS011;11947;50.810;4.394;2023-02-13T14:09:36;19.65;;;13.48;;
23539;SDS011;11947;50.810;4.394;2023-02-13T14:14:48;16.45;;;12.73;;
23539;SDS011;11947;50.810;4.394;2023-02-13T14:17:15;20.50;;;13.25;;
23539;SDS011;11947;50.810;4.394;2023-02-13T14:20:01;21.88;;;13.68;;
23539;SDS011;11947;50.810;4.394;2023-02-13T14:22:32;18.70;;;12.55;;
23539;SDS011;11947;50.810;4.394;2023-02-13T14:25:01;18.95;;;12.38;;
23539;SDS011;11947;50.810;4.394;2023-02-13T14:30:02;20.17;;;11.98;;
23539;SDS011;11947;50.810;4.394;2023-02-13T14:32:36;19.92;;;12.82;;
23539;SDS011;11947;50.810;4.394;2023-02-13T14:35:13;21.70;;;12.02;;
23539;SDS011;11947;50.810;4.394;2023-02-13T14:37:50;20.67;;;11.50;;
23539;SDS011;11947;50.810;4.394;2023-02-13T14:42:50;18.23;;;11.13;;
23539;SDS011;11947;50.810;4.394;2023-02-13T14:45:26;19.95;;;12.30;;
23539;SDS011;11947;50.810;4.394;2023-02-13T14:47:56;20.90;;;11.82;;
23539;SDS011;11947;50.810;4.394;2023-02-13T14:50:44;23.17;;;11.95;;
23539;SDS011;11947;50.810;4.394;2023-02-13T14:53:14;21.75;;;12.40;;
23539;SDS011;11947;50.810;4.394;2023-02-13T14:55:44;18.88;;;11.60;;
23539;SDS011;11947;50.810;4.394;2023-02-13T14:58:19;23.48;;;12.35;;
23539;SDS011;11947;50.810;4.394;2023-02-13T15:00:51;22.63;;;11.70;;
23539;SDS011;11947;50.810;4.394;2023-02-13T15:06:22;27.67;;;12.13;;
23539;SDS011;11947;50.810;4.394;2023-02-13T15:09:18;22.65;;;11.68;;
23539;SDS011;11947;50.810;4.394;2023-02-13T15:11:56;22.10;;;11.43;;
23539;SDS011;11947;50.810;4.394;2023-02-13T15:16:53;24.42;;;11.80;;
23539;SDS011;11947;50.810;4.394;2023-02-13T15:21:52;18.88;;;10.73;;
23539;SDS011;11947;50.810;4.394;2023-02-13T15:24:20;20.42;;;10.73;;
23539;SDS011;11947;50.810;4.394;2023-02-13T15:27:23;20.58;;;10.80;;
23539;SDS011;11947;50.810;4.394;2023-02-13T15:29:51;20.50;;;11.05;;
23539;SDS011;11947;50.810;4.394;2023-02-13T15:32:32;19.17;;;10.70;;
23539;SDS011;11947;50.810;4.394;2023-02-13T15:35:00;18.40;;;10.60;;
23539;SDS011;11947;50.810;4.394;2023-02-13T15:37:39;18.65;;;9.75;;
23539;SDS011;11947;50.810;4.394;2023-02-13T15:40:12;26.42;;;10.40;;
23539;SDS011;11947;50.810;4.394;2023-02-13T15:42:49;20.42;;;10.10;;
23539;SDS011;11947;50.810;4.394;2023-02-13T15:45:15;19.42;;;10.85;;
23539;SDS011;11947;50.810;4.394;2023-02-13T15:47:50;20.85;;;11.10;;
23539;SDS011;11947;50.810;4.394;2023-02-13T15:50:27;24.10;;;11.90;;
23539;SDS011;11947;50.810;4.394;2023-02-13T15:52:55;18.77;;;10.13;;
23539;SDS011;11947;50.810;4.394;2023-02-13T15:55:23;19.40;;;10.68;;
23539;SDS011;11947;50.810;4.394;2023-02-13T15:57:52;18.58;;;10.13;;
23539;SDS011;11947;50.810;4.394;2023-02-13T16:00:25;19.92;;;10.73;;
23539;SDS011;11947;50.810;4.394;2023-02-13T16:02:53;18.83;;;10.13;;
23539;SDS011;11947;50.810;4.394;2023-02-13T16:05:21;18.95;;;10.10;;
23539;SDS011;11947;50.810;4.394;2023-02-13T16:10:15;23.23;;;9.70;;
23539;SDS011;11947;50.810;4.394;2023-02-13T16:13:02;19.75;;;10.13;;
23539;SDS011;11947;50.810;4.394;2023-02-13T16:15:30;21.15;;;10.02;;
23539;SDS011;11947;50.810;4.394;2023-02-13T16:17:59;21.20;;;9.75;;
23539;SDS011;11947;50.810;4.394;2023-02-13T16:20:28;18.00;;;9.48;;
23539;SDS011;11947;50.810;4.394;2023-02-13T16:22:59;17.02;;;9.27;;
23539;SDS011;11947;50.810;4.394;2023-02-13T16:25:35;18.20;;;9.02;;
23539;SDS011;11947;50.810;4.394;2023-02-13T16:28:04;20.33;;;9.98;;
23539;SDS011;11947;50.810;4.394;2023-02-13T16:30:51;19.02;;;10.30;;
23539;SDS011;11947;50.810;4.394;2023-02-13T16:33:26;19.27;;;9.95;;
23539;SDS011;11947;50.810;4.394;2023-02-13T16:38:25;18.88;;;10.18;;
23539;SDS011;11947;50.810;4.394;2023-02-13T16:40:54;19.50;;;10.88;;
23539;SDS011;11947;50.810;4.394;2023-02-13T16:51:24;22.00;;;12.20;;
23539;SDS011;11947;50.810;4.394;2023-02-13T16:54:04;23.35;;;13.30;;
23539;SDS011;11947;50.810;4.394;2023-02-13T17:01:41;31.52;;;16.95;;
23539;SDS011;11947;50.810;4.394;2023-02-13T17:06:53;32.45;;;16.50;;
23539;SDS011;11947;50.810;4.394;2023-02-13T17:09:19;29.90;;;16.95;;
23539;SDS011;11947;50.810;4.394;2023-02-13T17:11:48;35.95;;;16.17;;
23539;SDS011;11947;50.810;4.394;2023-02-13T17:14:16;32.97;;;16.33;;
23539;SDS011;11947;50.810;4.394;2023-02-13T17:16:43;32.05;;;15.98;;
23539;SDS011;11947;50.810;4.394;2023-02-13T17:19:09;31.98;;;16.05;;
23539;SDS011;11947;50.810;4.394;2023-02-13T17:21:34;31.23;;;16.05;;
23539;SDS011;11947;50.810;4.394;2023-02-13T17:24:00;34.45;;;16.25;;
23539;SDS011;11947;50.810;4.394;2023-02-13T17:26:27;35.25;;;16.08;;
23539;SDS011;11947;50.810;4.394;2023-02-13T17:28:52;34.50;;;15.32;;
23539;SDS011;11947;50.810;4.394;2023-02-13T17:31:18;33.60;;;15.23;;
23539;SDS011;11947;50.810;4.394;2023-02-13T17:33:43;32.72;;;15.95;;
23539;SDS011;11947;50.810;4.394;2023-02-13T17:36:12;34.28;;;16.52;;
23539;SDS011;11947;50.810;4.394;2023-02-13T17:38:38;45.33;;;18.52;;
23539;SDS011;11947;50.810;4.394;2023-02-13T17:41:13;38.83;;;15.38;;